Startpagina
METAR-TAF:

METAR-TAF

Vliegvelden :

Vliegveld de Kooy

Den Helder, Nederland

breedte: 52-55N, lengte: 004-47E, hoogte: 0 m

Actueel weer

Dit bericht is 22 minuten geleden gemaakt, om 04:55 UTC
Wind 8 kt uit het noorden, variërend tussen het noordnoordwesten en het noordoosten
Temperatuur 7°C
Vochtigheid 66%
Druk 1026 hPa
Zicht 10 km of meer
Gebroken wolken op 3800 ft
Gebroken wolken op 24000 ft

METAR: EHKD 220455Z AUTO 01008KT 340V040 9999 BKN038 BKN240 07/01 Q1026 BLU NOSIG

Tijdstip: 07:17 (05:17 UTC)

Verwachting

Dit bericht is 4 uur en het 54 minuten geleden gemaakt, om 00:23 UTC
Verwachting geldig van 22 om 01 UTC tot 22 om 13 UTC
Wind 7 kt uit het noorden
Zicht 10 km of meer
geen wolken onder 1500 m en geen cumulonimbus
Wijzigt naar
van 22 om 06 UTC tot 22 om 08 UTC
Wind 10 kt uit het noordoosten met uitschieters tot 20 kt

TAF: EHKD 220023Z 2201/2213 01007KT CAVOK BECMG 2206/2208 05010G20KT

Waarnemingen en weersverwachtingen van meer dan 4000 vliegvelden (METAR en TAF).

De beschikbare stations zijn de gele en rode punten op de kaart.

Ga met uw muis naar het station om de naam te zien.

Klik dan om waarnemingen en weersverwachtingen te zien.

kaart wijzigen: klik op de groene knoppen met een zwart kruis om in te zoomen, op de groene knop met een streepje om uit te zoomen of op de groene pijlen voor aangrenzende kaarten.


METAR-TAF: